sensor_id;sensor_type;location;lat;lon;timestamp;P1;durP1;ratioP1;P2;durP2;ratioP2
4563;SDS011;2294;51.818;8.484;2024-03-23T00:55:41;15.67;;;4.67;;
4563;SDS011;2294;51.818;8.484;2024-03-23T00:58:07;15.23;;;5.60;;
4563;SDS011;2294;51.818;8.484;2024-03-23T01:00:34;16.00;;;5.63;;
4563;SDS011;2294;51.818;8.484;2024-03-23T01:03:00;13.80;;;4.80;;
4563;SDS011;2294;51.818;8.484;2024-03-23T01:05:28;14.57;;;4.53;;
4563;SDS011;2294;51.818;8.484;2024-03-23T01:07:54;8.37;;;3.97;;
4563;SDS011;2294;51.818;8.484;2024-03-23T01:10:21;17.10;;;4.43;;
4563;SDS011;2294;51.818;8.484;2024-03-23T01:12:49;19.00;;;4.47;;
4563;SDS011;2294;51.818;8.484;2024-03-23T01:15:16;9.20;;;3.80;;
4563;SDS011;2294;51.818;8.484;2024-03-23T01:17:42;22.50;;;3.97;;
4563;SDS011;2294;51.818;8.484;2024-03-23T01:20:09;14.30;;;3.33;;
4563;SDS011;2294;51.818;8.484;2024-03-23T01:22:35;12.13;;;3.60;;
4563;SDS011;2294;51.818;8.484;2024-03-23T01:25:03;18.67;;;3.83;;
4563;SDS011;2294;51.818;8.484;2024-03-23T01:27:29;10.30;;;3.27;;
4563;SDS011;2294;51.818;8.484;2024-03-23T01:29:58;15.00;;;3.23;;
4563;SDS011;2294;51.818;8.484;2024-03-23T01:32:24;27.60;;;3.97;;
4563;SDS011;2294;51.818;8.484;2024-03-23T01:34:51;13.90;;;2.73;;
4563;SDS011;2294;51.818;8.484;2024-03-23T01:37:17;13.47;;;3.03;;
4563;SDS011;2294;51.818;8.484;2024-03-23T01:39:44;17.73;;;3.80;;
4563;SDS011;2294;51.818;8.484;2024-03-23T01:42:11;9.60;;;3.50;;
4563;SDS011;2294;51.818;8.484;2024-03-23T01:44:38;15.37;;;3.97;;
4563;SDS011;2294;51.818;8.484;2024-03-23T01:47:05;12.47;;;3.10;;
4563;SDS011;2294;51.818;8.484;2024-03-23T01:49:33;14.03;;;3.40;;
4563;SDS011;2294;51.818;8.484;2024-03-23T01:51:59;12.90;;;4.20;;
4563;SDS011;2294;51.818;8.484;2024-03-23T01:54:26;10.83;;;2.70;;
4563;SDS011;2294;51.818;8.484;2024-03-23T01:56:53;15.30;;;3.37;;
4563;SDS011;2294;51.818;8.484;2024-03-23T01:59:21;11.13;;;2.80;;
4563;SDS011;2294;51.818;8.484;2024-03-23T02:01:47;18.90;;;4.13;;
4563;SDS011;2294;51.818;8.484;2024-03-23T02:04:15;12.37;;;3.10;;
4563;SDS011;2294;51.818;8.484;2024-03-23T02:06:42;10.50;;;2.77;;
4563;SDS011;2294;51.818;8.484;2024-03-23T02:09:09;7.10;;;2.97;;
4563;SDS011;2294;51.818;8.484;2024-03-23T02:11:35;11.87;;;3.50;;
4563;SDS011;2294;51.818;8.484;2024-03-23T02:14:02;15.37;;;3.40;;
4563;SDS011;2294;51.818;8.484;2024-03-23T02:16:28;15.93;;;3.40;;
4563;SDS011;2294;51.818;8.484;2024-03-23T02:18:55;16.87;;;3.23;;
4563;SDS011;2294;51.818;8.484;2024-03-23T02:21:23;7.87;;;2.93;;
4563;SDS011;2294;51.818;8.484;2024-03-23T02:23:54;9.37;;;3.00;;
4563;SDS011;2294;51.818;8.484;2024-03-23T02:26:20;14.80;;;2.67;;
4563;SDS011;2294;51.818;8.484;2024-03-23T02:28:47;13.37;;;2.87;;
4563;SDS011;2294;51.818;8.484;2024-03-23T02:31:13;7.63;;;2.87;;
4563;SDS011;2294;51.818;8.484;2024-03-23T02:33:40;6.57;;;2.63;;
4563;SDS011;2294;51.818;8.484;2024-03-23T02:36:07;9.50;;;2.60;;
4563;SDS011;2294;51.818;8.484;2024-03-23T02:38:34;15.37;;;3.80;;
4563;SDS011;2294;51.818;8.484;2024-03-23T02:41:05;12.10;;;3.23;;
4563;SDS011;2294;51.818;8.484;2024-03-23T02:43:32;12.57;;;3.40;;
4563;SDS011;2294;51.818;8.484;2024-03-23T02:45:58;10.17;;;3.07;;
4563;SDS011;2294;51.818;8.484;2024-03-23T02:51:29;8.93;;;2.93;;
4563;SDS011;2294;51.818;8.484;2024-03-23T02:53:56;11.13;;;2.80;;
4563;SDS011;2294;51.818;8.484;2024-03-23T02:56:24;6.53;;;1.97;;
4563;SDS011;2294;51.818;8.484;2024-03-23T02:58:51;12.77;;;2.47;;
4563;SDS011;2294;51.818;8.484;2024-03-23T03:01:17;5.30;;;1.87;;
4563;SDS011;2294;51.818;8.484;2024-03-23T03:03:44;8.27;;;2.00;;
4563;SDS011;2294;51.818;8.484;2024-03-23T03:06:11;6.40;;;2.50;;
4563;SDS011;2294;51.818;8.484;2024-03-23T03:08:38;11.73;;;2.77;;
4563;SDS011;2294;51.818;8.484;2024-03-23T03:11:04;6.30;;;2.30;;
4563;SDS011;2294;51.818;8.484;2024-03-23T03:13:32;7.30;;;1.60;;
4563;SDS011;2294;51.818;8.484;2024-03-23T03:15:58;4.70;;;1.57;;
4563;SDS011;2294;51.818;8.484;2024-03-23T03:18:26;5.90;;;2.03;;
4563;SDS011;2294;51.818;8.484;2024-03-23T03:20:53;12.00;;;2.47;;
4563;SDS011;2294;51.818;8.484;2024-03-23T03:23:21;9.00;;;2.10;;
4563;SDS011;2294;51.818;8.484;2024-03-23T03:25:47;7.77;;;1.87;;
4563;SDS011;2294;51.818;8.484;2024-03-23T03:28:14;5.20;;;2.00;;
4563;SDS011;2294;51.818;8.484;2024-03-23T03:30:42;9.77;;;2.83;;
4563;SDS011;2294;51.818;8.484;2024-03-23T03:33:09;9.33;;;3.07;;
4563;SDS011;2294;51.818;8.484;2024-03-23T03:35:35;8.23;;;3.07;;
4563;SDS011;2294;51.818;8.484;2024-03-23T03:38:02;10.10;;;2.90;;
4563;SDS011;2294;51.818;8.484;2024-03-23T03:40:29;10.60;;;2.80;;
4563;SDS011;2294;51.818;8.484;2024-03-23T03:42:56;5.00;;;2.33;;
4563;SDS011;2294;51.818;8.484;2024-03-23T03:45:22;10.87;;;3.10;;
4563;SDS011;2294;51.818;8.484;2024-03-23T03:47:50;5.63;;;2.00;;
4563;SDS011;2294;51.818;8.484;2024-03-23T03:50:16;6.00;;;2.07;;
4563;SDS011;2294;51.818;8.484;2024-03-23T03:52:43;6.73;;;2.10;;
4563;SDS011;2294;51.818;8.484;2024-03-23T03:55:12;7.60;;;2.33;;
4563;SDS011;2294;51.818;8.484;2024-03-23T03:57:39;7.40;;;2.13;;
4563;SDS011;2294;51.818;8.484;2024-03-23T04:00:06;8.70;;;2.20;;
4563;SDS011;2294;51.818;8.484;2024-03-23T04:02:36;6.93;;;2.53;;
4563;SDS011;2294;51.818;8.484;2024-03-23T04:05:03;11.90;;;2.33;;
4563;SDS011;2294;51.818;8.484;2024-03-23T04:07:30;4.87;;;1.90;;
4563;SDS011;2294;51.818;8.484;2024-03-23T04:09:57;6.20;;;1.60;;
4563;SDS011;2294;51.818;8.484;2024-03-23T04:12:24;4.43;;;1.67;;
4563;SDS011;2294;51.818;8.484;2024-03-23T04:14:50;7.53;;;2.37;;
4563;SDS011;2294;51.818;8.484;2024-03-23T04:17:17;7.60;;;2.90;;
4563;SDS011;2294;51.818;8.484;2024-03-23T04:19:43;3.97;;;1.93;;
4563;SDS011;2294;51.818;8.484;2024-03-23T04:22:12;12.50;;;2.37;;
4563;SDS011;2294;51.818;8.484;2024-03-23T04:24:38;5.20;;;1.77;;
4563;SDS011;2294;51.818;8.484;2024-03-23T04:27:05;8.87;;;2.67;;
4563;SDS011;2294;51.818;8.484;2024-03-23T04:29:31;7.60;;;2.47;;
4563;SDS011;2294;51.818;8.484;2024-03-23T04:31:58;4.27;;;1.80;;
4563;SDS011;2294;51.818;8.484;2024-03-23T04:34:26;6.50;;;1.90;;
4563;SDS011;2294;51.818;8.484;2024-03-23T04:36:53;6.07;;;2.13;;
4563;SDS011;2294;51.818;8.484;2024-03-23T04:39:20;5.80;;;1.83;;
4563;SDS011;2294;51.818;8.484;2024-03-23T04:41:47;7.07;;;2.40;;
4563;SDS011;2294;51.818;8.484;2024-03-23T04:44:15;6.23;;;2.30;;
4563;SDS011;2294;51.818;8.484;2024-03-23T04:46:42;7.43;;;2.70;;
4563;SDS011;2294;51.818;8.484;2024-03-23T04:49:09;9.30;;;2.67;;
4563;SDS011;2294;51.818;8.484;2024-03-23T04:51:36;9.80;;;1.97;;
4563;SDS011;2294;51.818;8.484;2024-03-23T04:54:03;18.13;;;3.20;;
4563;SDS011;2294;51.818;8.484;2024-03-23T04:56:32;9.53;;;2.20;;
4563;SDS011;2294;51.818;8.484;2024-03-23T04:58:59;4.17;;;1.90;;
4563;SDS011;2294;51.818;8.484;2024-03-23T05:01:26;7.57;;;2.70;;
4563;SDS011;2294;51.818;8.484;2024-03-23T05:03:53;9.70;;;3.30;;
4563;SDS011;2294;51.818;8.484;2024-03-23T05:06:20;9.87;;;2.97;;
4563;SDS011;2294;51.818;8.484;2024-03-23T05:08:47;15.50;;;3.27;;
4563;SDS011;2294;51.818;8.484;2024-03-23T05:11:13;5.40;;;2.40;;
4563;SDS011;2294;51.818;8.484;2024-03-23T05:13:42;7.77;;;2.30;;
4563;SDS011;2294;51.818;8.484;2024-03-23T05:16:08;8.83;;;3.00;;
4563;SDS011;2294;51.818;8.484;2024-03-23T05:18:35;8.80;;;3.30;;
4563;SDS011;2294;51.818;8.484;2024-03-23T05:21:01;33.03;;;4.37;;
4563;SDS011;2294;51.818;8.484;2024-03-23T05:23:29;18.40;;;4.40;;
4563;SDS011;2294;51.818;8.484;2024-03-23T05:25:55;14.00;;;2.97;;
4563;SDS011;2294;51.818;8.484;2024-03-23T05:28:22;8.73;;;2.83;;
4563;SDS011;2294;51.818;8.484;2024-03-23T05:30:51;17.73;;;2.67;;
4563;SDS011;2294;51.818;8.484;2024-03-23T05:33:18;9.70;;;2.80;;
4563;SDS011;2294;51.818;8.484;2024-03-23T05:35:44;11.43;;;3.23;;
4563;SDS011;2294;51.818;8.484;2024-03-23T05:38:12;19.63;;;3.40;;
4563;SDS011;2294;51.818;8.484;2024-03-23T05:40:38;8.70;;;2.40;;
4563;SDS011;2294;51.818;8.484;2024-03-23T05:43:06;13.83;;;2.40;;
4563;SDS011;2294;51.818;8.484;2024-03-23T05:45:32;12.20;;;3.60;;
4563;SDS011;2294;51.818;8.484;2024-03-23T05:48:00;10.03;;;2.57;;
4563;SDS011;2294;51.818;8.484;2024-03-23T05:50:26;6.83;;;1.90;;
4563;SDS011;2294;51.818;8.484;2024-03-23T05:52:54;5.60;;;1.93;;
4563;SDS011;2294;51.818;8.484;2024-03-23T05:55:20;6.90;;;2.73;;
4563;SDS011;2294;51.818;8.484;2024-03-23T05:57:47;12.03;;;2.63;;
4563;SDS011;2294;51.818;8.484;2024-03-23T06:00:13;13.33;;;3.80;;
4563;SDS011;2294;51.818;8.484;2024-03-23T06:02:42;22.10;;;4.70;;
4563;SDS011;2294;51.818;8.484;2024-03-23T06:05:11;11.50;;;3.10;;
4563;SDS011;2294;51.818;8.484;2024-03-23T06:07:38;8.67;;;2.30;;
4563;SDS011;2294;51.818;8.484;2024-03-23T06:10:04;10.00;;;2.00;;
4563;SDS011;2294;51.818;8.484;2024-03-23T06:12:31;8.30;;;2.23;;
4563;SDS011;2294;51.818;8.484;2024-03-23T06:14:58;13.63;;;2.30;;
4563;SDS011;2294;51.818;8.484;2024-03-23T06:17:25;7.90;;;1.90;;
4563;SDS011;2294;51.818;8.484;2024-03-23T06:19:51;6.40;;;1.83;;
4563;SDS011;2294;51.818;8.484;2024-03-23T06:22:19;12.63;;;2.40;;
4563;SDS011;2294;51.818;8.484;2024-03-23T06:24:45;3.60;;;1.60;;
4563;SDS011;2294;51.818;8.484;2024-03-23T06:27:13;13.37;;;2.20;;
4563;SDS011;2294;51.818;8.484;2024-03-23T06:29:39;8.17;;;2.37;;
4563;SDS011;2294;51.818;8.484;2024-03-23T06:32:06;6.23;;;1.50;;
4563;SDS011;2294;51.818;8.484;2024-03-23T06:34:32;10.30;;;1.53;;
4563;SDS011;2294;51.818;8.484;2024-03-23T06:37:00;6.37;;;1.77;;
4563;SDS011;2294;51.818;8.484;2024-03-23T06:39:29;7.43;;;2.00;;
4563;SDS011;2294;51.818;8.484;2024-03-23T06:41:56;8.97;;;2.07;;
4563;SDS011;2294;51.818;8.484;2024-03-23T06:44:22;10.67;;;4.03;;
4563;SDS011;2294;51.818;8.484;2024-03-23T06:46:49;6.47;;;3.10;;
4563;SDS011;2294;51.818;8.484;2024-03-23T06:49:15;6.47;;;3.17;;
4563;SDS011;2294;51.818;8.484;2024-03-23T06:51:42;7.90;;;2.93;;
4563;SDS011;2294;51.818;8.484;2024-03-23T06:54:09;8.47;;;3.20;;
4563;SDS011;2294;51.818;8.484;2024-03-23T06:56:37;8.70;;;5.07;;
4563;SDS011;2294;51.818;8.484;2024-03-23T06:59:03;8.80;;;3.07;;
4563;SDS011;2294;51.818;8.484;2024-03-23T07:01:30;11.17;;;3.27;;
4563;SDS011;2294;51.818;8.484;2024-03-23T07:03:56;11.00;;;3.90;;
4563;SDS011;2294;51.818;8.484;2024-03-23T07:06:24;8.67;;;3.40;;
4563;SDS011;2294;51.818;8.484;2024-03-23T07:08:50;7.17;;;3.53;;
4563;SDS011;2294;51.818;8.484;2024-03-23T07:11:19;11.90;;;3.67;;
4563;SDS011;2294;51.818;8.484;2024-03-23T07:13:49;14.33;;;3.80;;
4563;SDS011;2294;51.818;8.484;2024-03-23T07:16:16;16.77;;;4.97;;
4563;SDS011;2294;51.818;8.484;2024-03-23T07:18:42;11.03;;;3.97;;
4563;SDS011;2294;51.818;8.484;2024-03-23T07:21:11;11.73;;;5.43;;
4563;SDS011;2294;51.818;8.484;2024-03-23T07:23:37;14.87;;;4.70;;
4563;SDS011;2294;51.818;8.484;2024-03-23T07:26:07;18.10;;;4.93;;
4563;SDS011;2294;51.818;8.484;2024-03-23T07:28:33;19.80;;;6.40;;
4563;SDS011;2294;51.818;8.484;2024-03-23T07:31:03;17.70;;;6.13;;
4563;SDS011;2294;51.818;8.484;2024-03-23T07:33:30;17.13;;;7.03;;
4563;SDS011;2294;51.818;8.484;2024-03-23T07:35:57;20.33;;;6.90;;
4563;SDS011;2294;51.818;8.484;2024-03-23T07:38:25;16.00;;;5.90;;
4563;SDS011;2294;51.818;8.484;2024-03-23T07:40:55;26.57;;;7.27;;
4563;SDS011;2294;51.818;8.484;2024-03-23T07:43:28;13.80;;;6.17;;
4563;SDS011;2294;51.818;8.484;2024-03-23T07:45:55;14.47;;;6.30;;
4563;SDS011;2294;51.818;8.484;2024-03-23T07:48:23;26.07;;;8.80;;
4563;SDS011;2294;51.818;8.484;2024-03-23T07:50:59;17.40;;;6.30;;
4563;SDS011;2294;51.818;8.484;2024-03-23T07:53:26;19.93;;;6.50;;
4563;SDS011;2294;51.818;8.484;2024-03-23T07:55:54;15.27;;;6.87;;
4563;SDS011;2294;51.818;8.484;2024-03-23T07:58:21;11.13;;;4.90;;
4563;SDS011;2294;51.818;8.484;2024-03-23T08:00:47;16.57;;;5.80;;
4563;SDS011;2294;51.818;8.484;2024-03-23T08:03:14;17.47;;;7.67;;
4563;SDS011;2294;51.818;8.484;2024-03-23T08:05:42;20.30;;;7.43;;
4563;SDS011;2294;51.818;8.484;2024-03-23T08:08:09;17.43;;;5.53;;
4563;SDS011;2294;51.818;8.484;2024-03-23T08:10:36;20.67;;;7.37;;
4563;SDS011;2294;51.818;8.484;2024-03-23T08:13:05;17.50;;;5.73;;
4563;SDS011;2294;51.818;8.484;2024-03-23T08:15:31;14.33;;;6.20;;
4563;SDS011;2294;51.818;8.484;2024-03-23T08:17:59;11.87;;;6.90;;
4563;SDS011;2294;51.818;8.484;2024-03-23T08:20:25;13.27;;;5.00;;
4563;SDS011;2294;51.818;8.484;2024-03-23T08:22:54;9.20;;;3.63;;
4563;SDS011;2294;51.818;8.484;2024-03-23T08:25:20;17.83;;;4.47;;
4563;SDS011;2294;51.818;8.484;2024-03-23T08:27:47;18.60;;;6.17;;
4563;SDS011;2294;51.818;8.484;2024-03-23T08:30:14;14.83;;;5.53;;
4563;SDS011;2294;51.818;8.484;2024-03-23T08:32:41;22.47;;;6.57;;
4563;SDS011;2294;51.818;8.484;2024-03-23T08:35:08;11.40;;;5.07;;
4563;SDS011;2294;51.818;8.484;2024-03-23T08:37:35;16.87;;;5.87;;
4563;SDS011;2294;51.818;8.484;2024-03-23T08:40:03;17.03;;;4.80;;
4563;SDS011;2294;51.818;8.484;2024-03-23T08:42:30;13.17;;;4.60;;
4563;SDS011;2294;51.818;8.484;2024-03-23T08:44:56;20.40;;;7.80;;
4563;SDS011;2294;51.818;8.484;2024-03-23T08:47:23;17.53;;;5.10;;
4563;SDS011;2294;51.818;8.484;2024-03-23T08:49:49;8.40;;;3.97;;
4563;SDS011;2294;51.818;8.484;2024-03-23T08:52:17;24.07;;;5.63;;
4563;SDS011;2294;51.818;8.484;2024-03-23T08:54:43;10.50;;;5.00;;
4563;SDS011;2294;51.818;8.484;2024-03-23T08:57:12;9.70;;;4.80;;
4563;SDS011;2294;51.818;8.484;2024-03-23T08:59:39;12.10;;;3.70;;
4563;SDS011;2294;51.818;8.484;2024-03-23T09:02:06;13.93;;;4.50;;
4563;SDS011;2294;51.818;8.484;2024-03-23T09:04:32;12.03;;;4.47;;
4563;SDS011;2294;51.818;8.484;2024-03-23T09:07:00;18.27;;;4.63;;
4563;SDS011;2294;51.818;8.484;2024-03-23T09:09:26;25.50;;;5.10;;
4563;SDS011;2294;51.818;8.484;2024-03-23T09:11:53;9.80;;;4.13;;
4563;SDS011;2294;51.818;8.484;2024-03-23T09:14:21;9.30;;;4.10;;
4563;SDS011;2294;51.818;8.484;2024-03-23T09:16:49;10.23;;;3.70;;
4563;SDS011;2294;51.818;8.484;2024-03-23T09:19:16;9.60;;;4.27;;
4563;SDS011;2294;51.818;8.484;2024-03-23T09:21:45;13.63;;;4.63;;
4563;SDS011;2294;51.818;8.484;2024-03-23T09:24:11;10.63;;;3.60;;
4563;SDS011;2294;51.818;8.484;2024-03-23T09:26:38;15.20;;;3.77;;
4563;SDS011;2294;51.818;8.484;2024-03-23T09:29:04;11.47;;;3.57;;
4563;SDS011;2294;51.818;8.484;2024-03-23T09:31:33;13.87;;;4.10;;
4563;SDS011;2294;51.818;8.484;2024-03-23T09:33:59;9.73;;;3.57;;
4563;SDS011;2294;51.818;8.484;2024-03-23T09:36:26;18.40;;;4.37;;
4563;SDS011;2294;51.818;8.484;2024-03-23T09:38:52;2.90;;;1.60;;
4563;SDS011;2294;51.818;8.484;2024-03-23T09:41:18;18.73;;;3.40;;
4563;SDS011;2294;51.818;8.484;2024-03-23T09:43:45;10.80;;;3.77;;
4563;SDS011;2294;51.818;8.484;2024-03-23T09:46:13;13.10;;;3.60;;
4563;SDS011;2294;51.818;8.484;2024-03-23T09:48:42;4.03;;;2.00;;
4563;SDS011;2294;51.818;8.484;2024-03-23T09:51:11;5.03;;;2.13;;
4563;SDS011;2294;51.818;8.484;2024-03-23T09:53:38;6.07;;;2.70;;
4563;SDS011;2294;51.818;8.484;2024-03-23T09:56:04;5.43;;;2.60;;
4563;SDS011;2294;51.818;8.484;2024-03-23T09:58:31;7.63;;;3.00;;
4563;SDS011;2294;51.818;8.484;2024-03-23T10:00:58;9.10;;;3.27;;
4563;SDS011;2294;51.818;8.484;2024-03-23T10:03:25;10.70;;;2.97;;
4563;SDS011;2294;51.818;8.484;2024-03-23T10:06:01;3.90;;;1.70;;
4563;SDS011;2294;51.818;8.484;2024-03-23T10:08:29;8.60;;;2.53;;
4563;SDS011;2294;51.818;8.484;2024-03-23T10:10:55;5.30;;;1.90;;
4563;SDS011;2294;51.818;8.484;2024-03-23T10:13:26;9.10;;;2.93;;
4563;SDS011;2294;51.818;8.484;2024-03-23T10:15:56;5.87;;;3.07;;
4563;SDS011;2294;51.818;8.484;2024-03-23T10:18:24;6.00;;;3.17;;
4563;SDS011;2294;51.818;8.484;2024-03-23T10:20:51;8.33;;;2.70;;
4563;SDS011;2294;51.818;8.484;2024-03-23T10:23:19;12.23;;;3.20;;
4563;SDS011;2294;51.818;8.484;2024-03-23T10:25:47;6.07;;;2.90;;
4563;SDS011;2294;51.818;8.484;2024-03-23T10:28:14;3.57;;;2.00;;
4563;SDS011;2294;51.818;8.484;2024-03-23T10:30:40;3.10;;;1.03;;
4563;SDS011;2294;51.818;8.484;2024-03-23T10:33:08;2.03;;;1.10;;
4563;SDS011;2294;51.818;8.484;2024-03-23T10:35:34;2.90;;;1.23;;
4563;SDS011;2294;51.818;8.484;2024-03-23T10:38:02;4.50;;;1.30;;
4563;SDS011;2294;51.818;8.484;2024-03-23T10:40:30;4.03;;;1.10;;
4563;SDS011;2294;51.818;8.484;2024-03-23T10:42:57;7.60;;;1.60;;
4563;SDS011;2294;51.818;8.484;2024-03-23T10:45:24;5.77;;;1.50;;
4563;SDS011;2294;51.818;8.484;2024-03-23T10:47:51;2.67;;;1.40;;
4563;SDS011;2294;51.818;8.484;2024-03-23T10:50:17;7.83;;;1.93;;
4563;SDS011;2294;51.818;8.484;2024-03-23T10:52:45;2.23;;;1.33;;
4563;SDS011;2294;51.818;8.484;2024-03-23T10:55:12;8.13;;;1.93;;
4563;SDS011;2294;51.818;8.484;2024-03-23T10:57:42;3.10;;;1.77;;
4563;SDS011;2294;51.818;8.484;2024-03-23T11:00:10;5.83;;;2.40;;
4563;SDS011;2294;51.818;8.484;2024-03-23T11:02:39;5.70;;;1.73;;
4563;SDS011;2294;51.818;8.484;2024-03-23T11:07:49;4.67;;;2.30;;
4563;SDS011;2294;51.818;8.484;2024-03-23T11:10:24;8.63;;;2.03;;
4563;SDS011;2294;51.818;8.484;2024-03-23T11:12:53;5.00;;;2.00;;
4563;SDS011;2294;51.818;8.484;2024-03-23T11:15:19;3.43;;;1.90;;
4563;SDS011;2294;51.818;8.484;2024-03-23T11:20:30;8.07;;;2.20;;
4563;SDS011;2294;51.818;8.484;2024-03-23T11:22:58;9.70;;;2.23;;
4563;SDS011;2294;51.818;8.484;2024-03-23T11:25:25;5.63;;;1.97;;
4563;SDS011;2294;51.818;8.484;2024-03-23T11:27:54;5.00;;;2.40;;
4563;SDS011;2294;51.818;8.484;2024-03-23T11:30:22;5.37;;;2.50;;
4563;SDS011;2294;51.818;8.484;2024-03-23T11:32:51;9.27;;;2.60;;
4563;SDS011;2294;51.818;8.484;2024-03-23T11:35:28;3.53;;;1.83;;
4563;SDS011;2294;51.818;8.484;2024-03-23T11:38:05;6.30;;;2.80;;
4563;SDS011;2294;51.818;8.484;2024-03-23T11:40:32;6.60;;;2.50;;
4563;SDS011;2294;51.818;8.484;2024-03-23T11:43:01;9.30;;;2.40;;
4563;SDS011;2294;51.818;8.484;2024-03-23T11:45:28;7.60;;;2.67;;
4563;SDS011;2294;51.818;8.484;2024-03-23T11:48:02;3.37;;;2.07;;
4563;SDS011;2294;51.818;8.484;2024-03-23T11:50:28;6.87;;;2.30;;
4563;SDS011;2294;51.818;8.484;2024-03-23T11:53:06;3.57;;;1.87;;
4563;SDS011;2294;51.818;8.484;2024-03-23T11:55:38;9.97;;;3.83;;
4563;SDS011;2294;51.818;8.484;2024-03-23T11:58:06;5.83;;;2.07;;
4563;SDS011;2294;51.818;8.484;2024-03-23T12:00:33;7.13;;;3.20;;
4563;SDS011;2294;51.818;8.484;2024-03-23T12:03:01;9.73;;;3.13;;
4563;SDS011;2294;51.818;8.484;2024-03-23T12:05:27;9.30;;;3.30;;
4563;SDS011;2294;51.818;8.484;2024-03-23T12:07:54;3.70;;;2.23;;
4563;SDS011;2294;51.818;8.484;2024-03-23T12:10:21;8.10;;;2.30;;
4563;SDS011;2294;51.818;8.484;2024-03-23T12:12:58;3.27;;;2.77;;
4563;SDS011;2294;51.818;8.484;2024-03-23T12:15:26;13.07;;;3.20;;
4563;SDS011;2294;51.818;8.484;2024-03-23T12:18:05;14.87;;;5.17;;
4563;SDS011;2294;51.818;8.484;2024-03-23T12:20:32;16.13;;;5.63;;
4563;SDS011;2294;51.818;8.484;2024-03-23T12:23:04;9.80;;;3.17;;
4563;SDS011;2294;51.818;8.484;2024-03-23T12:25:32;9.03;;;2.50;;
4563;SDS011;2294;51.818;8.484;2024-03-23T12:27:58;4.50;;;1.70;;
4563;SDS011;2294;51.818;8.484;2024-03-23T12:30:27;5.53;;;2.20;;
4563;SDS011;2294;51.818;8.484;2024-03-23T12:32:52;3.70;;;1.30;;
4563;SDS011;2294;51.818;8.484;2024-03-23T12:35:19;10.70;;;2.07;;
4563;SDS011;2294;51.818;8.484;2024-03-23T12:37:45;25.37;;;9.23;;
4563;SDS011;2294;51.818;8.484;2024-03-23T12:40:12;3.07;;;1.50;;
4563;SDS011;2294;51.818;8.484;2024-03-23T12:42:38;12.60;;;3.53;;
4563;SDS011;2294;51.818;8.484;2024-03-23T12:45:05;4.00;;;1.30;;
4563;SDS011;2294;51.818;8.484;2024-03-23T12:47:33;2.10;;;1.53;;
4563;SDS011;2294;51.818;8.484;2024-03-23T12:50:00;4.60;;;1.70;;
4563;SDS011;2294;51.818;8.484;2024-03-23T12:52:26;1.80;;;1.23;;
4563;SDS011;2294;51.818;8.484;2024-03-23T12:54:54;9.13;;;4.43;;
4563;SDS011;2294;51.818;8.484;2024-03-23T12:57:21;3.73;;;1.50;;
4563;SDS011;2294;51.818;8.484;2024-03-23T12:59:49;1.93;;;1.00;;
4563;SDS011;2294;51.818;8.484;2024-03-23T13:02:16;3.80;;;1.00;;
4563;SDS011;2294;51.818;8.484;2024-03-23T13:04:46;2.73;;;1.10;;
4563;SDS011;2294;51.818;8.484;2024-03-23T13:07:15;2.10;;;1.07;;
4563;SDS011;2294;51.818;8.484;2024-03-23T13:09:41;1.50;;;1.20;;
4563;SDS011;2294;51.818;8.484;2024-03-23T13:12:08;1.23;;;1.13;;
4563;SDS011;2294;51.818;8.484;2024-03-23T13:14:35;2.00;;;1.10;;
4563;SDS011;2294;51.818;8.484;2024-03-23T13:17:01;1.43;;;0.97;;
4563;SDS011;2294;51.818;8.484;2024-03-23T13:19:28;5.00;;;1.93;;
4563;SDS011;2294;51.818;8.484;2024-03-23T13:21:57;1.97;;;1.20;;
4563;SDS011;2294;51.818;8.484;2024-03-23T13:24:24;1.70;;;1.00;;
4563;SDS011;2294;51.818;8.484;2024-03-23T13:26:51;5.57;;;1.63;;
4563;SDS011;2294;51.818;8.484;2024-03-23T13:29:17;5.03;;;1.73;;
4563;SDS011;2294;51.818;8.484;2024-03-23T13:31:44;3.17;;;1.30;;
4563;SDS011;2294;51.818;8.484;2024-03-23T13:34:11;2.20;;;1.37;;
4563;SDS011;2294;51.818;8.484;2024-03-23T13:36:38;3.20;;;1.77;;
4563;SDS011;2294;51.818;8.484;2024-03-23T13:39:05;4.40;;;1.53;;
4563;SDS011;2294;51.818;8.484;2024-03-23T13:41:36;7.53;;;1.70;;
4563;SDS011;2294;51.818;8.484;2024-03-23T13:44:03;2.80;;;1.30;;
4563;SDS011;2294;51.818;8.484;2024-03-23T13:46:30;3.77;;;1.57;;
4563;SDS011;2294;51.818;8.484;2024-03-23T13:48:56;4.37;;;1.60;;
4563;SDS011;2294;51.818;8.484;2024-03-23T13:51:23;6.23;;;2.13;;
4563;SDS011;2294;51.818;8.484;2024-03-23T13:53:50;3.20;;;1.50;;
4563;SDS011;2294;51.818;8.484;2024-03-23T13:56:18;5.10;;;1.70;;
4563;SDS011;2294;51.818;8.484;2024-03-23T13:58:44;5.10;;;2.03;;
4563;SDS011;2294;51.818;8.484;2024-03-23T14:01:12;4.20;;;1.83;;
4563;SDS011;2294;51.818;8.484;2024-03-23T14:03:38;7.53;;;2.50;;
4563;SDS011;2294;51.818;8.484;2024-03-23T14:06:06;4.07;;;1.97;;
4563;SDS011;2294;51.818;8.484;2024-03-23T14:08:32;4.60;;;2.13;;
4563;SDS011;2294;51.818;8.484;2024-03-23T14:11:01;6.23;;;1.73;;
4563;SDS011;2294;51.818;8.484;2024-03-23T14:13:30;7.70;;;3.33;;
4563;SDS011;2294;51.818;8.484;2024-03-23T14:15:57;2.00;;;1.50;;
4563;SDS011;2294;51.818;8.484;2024-03-23T14:18:23;12.37;;;2.07;;
4563;SDS011;2294;51.818;8.484;2024-03-23T14:20:51;3.20;;;1.40;;
4563;SDS011;2294;51.818;8.484;2024-03-23T14:23:18;5.43;;;1.67;;
4563;SDS011;2294;51.818;8.484;2024-03-23T14:25:44;3.40;;;1.20;;
4563;SDS011;2294;51.818;8.484;2024-03-23T14:28:11;4.30;;;1.80;;
4563;SDS011;2294;51.818;8.484;2024-03-23T14:30:41;2.97;;;1.40;;
4563;SDS011;2294;51.818;8.484;2024-03-23T14:33:08;4.43;;;1.50;;
4563;SDS011;2294;51.818;8.484;2024-03-23T14:35:34;5.20;;;1.20;;
4563;SDS011;2294;51.818;8.484;2024-03-23T14:38:01;3.23;;;1.03;;
4563;SDS011;2294;51.818;8.484;2024-03-23T14:40:27;3.20;;;1.43;;
4563;SDS011;2294;51.818;8.484;2024-03-23T14:42:54;4.23;;;1.40;;
4563;SDS011;2294;51.818;8.484;2024-03-23T14:45:20;4.13;;;1.60;;
4563;SDS011;2294;51.818;8.484;2024-03-23T14:47:49;2.83;;;1.53;;
4563;SDS011;2294;51.818;8.484;2024-03-23T14:50:15;4.00;;;1.97;;
4563;SDS011;2294;51.818;8.484;2024-03-23T14:52:42;4.00;;;1.90;;
4563;SDS011;2294;51.818;8.484;2024-03-23T14:55:09;2.40;;;1.03;;
4563;SDS011;2294;51.818;8.484;2024-03-23T14:57:36;3.90;;;1.50;;
4563;SDS011;2294;51.818;8.484;2024-03-23T15:00:04;3.63;;;1.90;;
4563;SDS011;2294;51.818;8.484;2024-03-23T15:02:33;2.87;;;1.80;;
4563;SDS011;2294;51.818;8.484;2024-03-23T15:05:01;6.97;;;1.90;;
4563;SDS011;2294;51.818;8.484;2024-03-23T15:07:29;3.50;;;1.40;;
4563;SDS011;2294;51.818;8.484;2024-03-23T15:09:55;4.73;;;1.90;;
4563;SDS011;2294;51.818;8.484;2024-03-23T15:12:22;8.17;;;1.97;;
4563;SDS011;2294;51.818;8.484;2024-03-23T15:14:48;2.50;;;1.40;;
4563;SDS011;2294;51.818;8.484;2024-03-23T15:17:14;5.40;;;1.73;;
4563;SDS011;2294;51.818;8.484;2024-03-23T15:19:40;4.37;;;1.90;;
4563;SDS011;2294;51.818;8.484;2024-03-23T15:22:09;4.80;;;1.87;;
4563;SDS011;2294;51.818;8.484;2024-03-23T15:24:35;4.30;;;1.83;;
4563;SDS011;2294;51.818;8.484;2024-03-23T15:27:02;3.60;;;1.60;;
4563;SDS011;2294;51.818;8.484;2024-03-23T15:29:28;3.67;;;1.70;;
4563;SDS011;2294;51.818;8.484;2024-03-23T15:31:56;2.20;;;1.63;;
4563;SDS011;2294;51.818;8.484;2024-03-23T15:34:21;6.53;;;2.17;;
4563;SDS011;2294;51.818;8.484;2024-03-23T15:36:48;3.53;;;1.60;;
4563;SDS011;2294;51.818;8.484;2024-03-23T15:39:17;2.87;;;2.03;;
4563;SDS011;2294;51.818;8.484;2024-03-23T15:41:44;4.93;;;2.30;;
4563;SDS011;2294;51.818;8.484;2024-03-23T15:44:10;2.33;;;1.60;;
4563;SDS011;2294;51.818;8.484;2024-03-23T15:46:37;6.27;;;1.50;;
4563;SDS011;2294;51.818;8.484;2024-03-23T15:49:03;4.33;;;1.50;;
4563;SDS011;2294;51.818;8.484;2024-03-23T15:51:30;6.30;;;1.77;;
4563;SDS011;2294;51.818;8.484;2024-03-23T15:53:58;7.63;;;2.20;;
4563;SDS011;2294;51.818;8.484;2024-03-23T15:56:26;5.53;;;1.60;;
4563;SDS011;2294;51.818;8.484;2024-03-23T15:58:54;6.37;;;2.00;;
4563;SDS011;2294;51.818;8.484;2024-03-23T16:01:20;3.33;;;1.60;;
4563;SDS011;2294;51.818;8.484;2024-03-23T16:03:47;5.03;;;1.70;;
4563;SDS011;2294;51.818;8.484;2024-03-23T16:06:14;4.07;;;1.47;;
4563;SDS011;2294;51.818;8.484;2024-03-23T16:08:39;3.10;;;1.70;;
4563;SDS011;2294;51.818;8.484;2024-03-23T16:11:06;3.87;;;1.60;;
4563;SDS011;2294;51.818;8.484;2024-03-23T16:13:34;4.13;;;1.60;;